Terminal Aerodrome Forecast
Issued by NWS

Home | Current Version | Previous Version | Text Only | Print | Product List | Glossary On
Versions: 1 2 3 4 5 6 7 8 9 10 11 12 13 14 15 16 17 18 19 20
000
FTUS43 KPAH 251407 AAA
TAFCGI
TAF AMD
KCGI 251407Z 2514/2612 18010G18KT P6SM VCSH OVC020
      TEMPO 2514/2516 BKN015
     FM251700 18010KT P6SM SCT025 BKN040
     FM252100 18008KT P6SM OVC050
     FM260600 17007KT 6SM -SHRA BR OVC020=

USA.gov is the U.S. government's official web portal to all federal, state and local government web resources and services.